Time;durP1;ratioP1;P1;durP2;ratioP2;P2;SDS_P1;SDS_P2;PMS_P1;PMS_P2;Temp;Humidity;BMP_temperature;BMP_pressure;BME280_temperature;BME280_humidity;BME280_pressure;Samples;Min_cycle;Max_cycle;Signal;HPM_P1;HPM_P2
2023/12/07 00:01:18;;;;;;;0.10;0.10;;;3.80;99.90;;;;;;5037694;28;20070;-66
2023/12/07 00:03:44;;;;;;;0.10;0.10;;;3.80;99.90;;;;;;5039365;28;20048;-66
2023/12/07 00:06:10;;;;;;;0.15;0.15;;;3.80;99.90;;;;;;5031909;28;20515;-67
2023/12/07 00:08:35;;;;;;;0.10;0.10;;;3.80;99.90;;;;;;5040767;28;20082;-67
2023/12/07 00:11:01;;;;;;;0.13;0.13;;;3.80;99.90;;;;;;5041984;28;20049;-67
2023/12/07 00:13:27;;;;;;;0.28;0.28;;;3.90;99.90;;;;;;5035962;28;20041;-66
2023/12/07 00:15:52;;;;;;;0.10;0.10;;;3.80;99.90;;;;;;5043378;28;20128;-67
2023/12/07 00:18:18;;;;;;;0.10;0.10;;;3.80;99.90;;;;;;5039504;28;20115;-66
2023/12/07 00:20:43;;;;;;;0.20;0.20;;;3.70;99.90;;;;;;5043168;28;20086;-66
2023/12/07 00:23:09;;;;;;;0.25;0.25;;;3.70;99.90;;;;;;5042431;28;20068;-66
2023/12/07 00:25:34;;;;;;;0.10;0.10;;;3.60;99.90;;;;;;5042863;28;20075;-66
2023/12/07 00:28:00;;;;;;;0.22;0.22;;;3.50;99.90;;;;;;5043886;28;20528;-67
2023/12/07 00:30:26;;;;;;;0.00;0.00;;;3.50;99.90;;;;;;5046341;28;20073;-66
2023/12/07 00:32:51;;;;;;;6.15;1.08;;;3.40;99.90;;;;;;5037499;28;20046;-67
2023/12/07 00:35:17;;;;;;;1.10;1.05;;;3.30;99.90;;;;;;5041334;28;20095;-66
2023/12/07 00:37:43;;;;;;;0.20;0.20;;;3.20;99.90;;;;;;5047152;28;20049;-67
2023/12/07 00:40:09;;;;;;;0.10;0.10;;;3.10;99.90;;;;;;5044384;28;20048;-67
2023/12/07 00:42:35;;;;;;;0.20;0.20;;;3.00;99.90;;;;;;5034986;28;20495;-67
2023/12/07 00:45:00;;;;;;;0.10;0.10;;;2.90;99.90;;;;;;5038873;28;20607;-67
2023/12/07 00:47:26;;;;;;;0.10;0.10;;;3.00;99.90;;;;;;5045896;28;20033;-67
2023/12/07 00:49:52;;;;;;;0.75;0.75;;;3.00;99.90;;;;;;5037111;28;20104;-66
2023/12/07 00:52:17;;;;;;;0.10;0.10;;;2.90;99.90;;;;;;5033899;28;20041;-66
2023/12/07 00:54:44;;;;;;;0.10;0.10;;;2.90;99.90;;;;;;5042280;28;20056;-66
2023/12/07 00:57:09;;;;;;;0.95;0.95;;;2.80;99.90;;;;;;5036674;28;20052;-67
2023/12/07 00:59:36;;;;;;;0.10;0.10;;;2.90;99.90;;;;;;5041043;28;20041;-67
2023/12/07 01:02:06;;;;;;;0.30;0.30;;;2.90;99.90;;;;;;5058204;28;20652;-67
2023/12/07 01:04:32;;;;;;;0.50;0.50;;;2.80;99.90;;;;;;5032666;28;20130;-67
2023/12/07 01:06:58;;;;;;;0.10;0.10;;;2.90;99.90;;;;;;5043889;28;20479;-67
2023/12/07 01:09:23;;;;;;;0.52;0.52;;;2.90;99.90;;;;;;5049495;28;20049;-67
2023/12/07 01:11:49;;;;;;;0.10;0.10;;;2.90;99.90;;;;;;5042756;28;20087;-67
2023/12/07 01:14:16;;;;;;;0.00;0.00;;;2.90;99.90;;;;;;5037745;28;20361;-67
2023/12/07 01:16:42;;;;;;;1.27;1.10;;;2.90;99.90;;;;;;5048261;28;20041;-67
2023/12/07 01:19:08;;;;;;;0.10;0.10;;;2.90;99.90;;;;;;5042658;28;20029;-67
2023/12/07 01:21:34;;;;;;;0.10;0.10;;;2.90;99.90;;;;;;5044146;28;20049;-67
2023/12/07 01:24:00;;;;;;;0.10;0.10;;;3.00;99.90;;;;;;5040274;28;20040;-67
2023/12/07 01:26:25;;;;;;;0.10;0.10;;;3.10;99.90;;;;;;5041065;28;20381;-67
2023/12/07 01:28:51;;;;;;;0.57;0.57;;;3.10;99.90;;;;;;5047151;28;20407;-66
2023/12/07 01:31:17;;;;;;;0.13;0.13;;;3.10;99.90;;;;;;5047273;28;20045;-67
2023/12/07 01:33:45;;;;;;;0.43;0.43;;;3.00;99.90;;;;;;5039903;28;20103;-67
2023/12/07 01:36:11;;;;;;;0.20;0.20;;;3.00;99.90;;;;;;5048253;28;20588;-67
2023/12/07 01:38:37;;;;;;;2.00;0.85;;;3.00;99.90;;;;;;5047500;28;20123;-67
2023/12/07 01:41:03;;;;;;;0.10;0.10;;;3.00;99.90;;;;;;5039870;28;20060;-67
2023/12/07 01:43:28;;;;;;;0.30;0.30;;;3.00;99.90;;;;;;5044755;28;20172;-67
2023/12/07 01:45:57;;;;;;;0.32;0.28;;;2.90;99.90;;;;;;5044011;28;20064;-67
2023/12/07 01:48:26;;;;;;;0.10;0.10;;;2.90;99.90;;;;;;5046503;28;20326;-67
2023/12/07 01:50:53;;;;;;;0.10;0.10;;;2.90;99.90;;;;;;5036668;28;20053;-67
2023/12/07 01:53:21;;;;;;;0.10;0.10;;;2.70;99.90;;;;;;5048281;28;20443;-67
2023/12/07 01:55:47;;;;;;;0.10;0.10;;;2.70;99.90;;;;;;5040655;28;20051;-67
2023/12/07 01:58:14;;;;;;;1.27;1.27;;;2.70;99.90;;;;;;5048528;28;20156;-67
2023/12/07 02:00:40;;;;;;;0.10;0.10;;;2.60;99.90;;;;;;5045277;28;20099;-67
2023/12/07 02:03:05;;;;;;;0.10;0.10;;;2.50;99.90;;;;;;5045938;28;20041;-67
2023/12/07 02:05:32;;;;;;;0.10;0.10;;;2.50;99.90;;;;;;5057373;28;20497;-67
2023/12/07 02:07:58;;;;;;;0.55;0.55;;;2.50;99.90;;;;;;5036435;28;20091;-67
2023/12/07 02:10:24;;;;;;;0.10;0.10;;;2.50;99.90;;;;;;5042769;28;20072;-67
2023/12/07 02:12:52;;;;;;;0.30;0.30;;;2.40;99.90;;;;;;5044099;28;20163;-67
2023/12/07 02:15:19;;;;;;;0.10;0.10;;;2.40;99.90;;;;;;5046476;28;20055;-67
2023/12/07 02:18:12;;;;;;;0.10;0.10;;;2.40;99.90;;;;;;5039902;28;20037;-67
2023/12/07 02:20:43;;;;;;;0.10;0.10;;;2.40;99.90;;;;;;5042046;28;20142;-67
2023/12/07 02:23:11;;;;;;;0.10;0.10;;;2.40;99.90;;;;;;5041928;28;20468;-67
2023/12/07 02:25:53;;;;;;;0.10;0.10;;;2.30;99.90;;;;;;5040542;28;20532;-67
2023/12/07 02:28:18;;;;;;;3.10;2.40;;;2.30;99.90;;;;;;5045926;28;20056;-67
2023/12/07 02:30:44;;;;;;;7.03;0.80;;;2.30;99.90;;;;;;5058632;28;20049;-67
2023/12/07 02:33:11;;;;;;;0.10;0.10;;;2.40;99.90;;;;;;5038573;28;20535;-67
2023/12/07 02:35:38;;;;;;;0.10;0.10;;;2.30;99.90;;;;;;5045504;28;20037;-67
2023/12/07 02:38:06;;;;;;;0.10;0.10;;;2.20;99.90;;;;;;5043570;28;20049;-67
2023/12/07 02:40:32;;;;;;;0.13;0.13;;;2.20;99.90;;;;;;5039575;28;20033;-67
2023/12/07 02:42:59;;;;;;;0.65;0.65;;;2.20;99.90;;;;;;5038068;28;20072;-67
2023/12/07 02:45:25;;;;;;;1.00;1.00;;;2.20;99.90;;;;;;5054394;28;20055;-67
2023/12/07 02:47:51;;;;;;;0.10;0.10;;;2.20;99.90;;;;;;5038826;28;20128;-67
2023/12/07 02:50:17;;;;;;;0.10;0.10;;;2.10;99.90;;;;;;5038997;28;20132;-67
2023/12/07 02:52:42;;;;;;;0.00;0.00;;;2.20;99.90;;;;;;5043023;28;20618;-67
2023/12/07 02:55:09;;;;;;;5.82;0.90;;;2.20;99.90;;;;;;5036206;28;20052;-67
2023/12/07 02:57:35;;;;;;;0.10;0.10;;;2.10;99.90;;;;;;5042366;28;20032;-67
2023/12/07 03:00:01;;;;;;;0.20;0.20;;;2.10;99.90;;;;;;5042010;28;20396;-67
2023/12/07 03:02:26;;;;;;;0.10;0.10;;;2.10;99.90;;;;;;5032413;28;20061;-67
2023/12/07 03:04:52;;;;;;;0.30;0.30;;;2.10;99.90;;;;;;5039299;28;20053;-67
2023/12/07 03:07:18;;;;;;;0.17;0.17;;;2.10;99.90;;;;;;5041297;28;20073;-67
2023/12/07 03:09:43;;;;;;;0.10;0.10;;;2.10;99.90;;;;;;5044090;28;20056;-67
2023/12/07 03:12:09;;;;;;;0.30;0.30;;;2.10;99.90;;;;;;5038897;28;20492;-67
2023/12/07 03:14:34;;;;;;;0.10;0.10;;;2.10;99.90;;;;;;5042760;28;20041;-66
2023/12/07 03:17:00;;;;;;;0.10;0.10;;;2.00;99.90;;;;;;5036141;28;20049;-67
2023/12/07 03:19:25;;;;;;;0.10;0.10;;;2.10;99.90;;;;;;5046083;28;20040;-67
2023/12/07 03:21:51;;;;;;;0.10;0.10;;;2.00;99.90;;;;;;5034553;28;20072;-67
2023/12/07 03:24:17;;;;;;;0.10;0.10;;;2.00;99.90;;;;;;5040446;28;20037;-67
2023/12/07 03:26:42;;;;;;;0.52;0.52;;;2.00;99.90;;;;;;5054604;28;20051;-67
2023/12/07 03:29:08;;;;;;;0.40;0.40;;;1.90;99.90;;;;;;5045895;28;20048;-67
2023/12/07 03:31:34;;;;;;;1.08;1.08;;;1.90;99.90;;;;;;5040003;28;20048;-67
2023/12/07 03:34:00;;;;;;;0.30;0.30;;;1.90;99.90;;;;;;5044809;28;20040;-67
2023/12/07 03:36:26;;;;;;;0.10;0.10;;;1.90;99.90;;;;;;5045036;28;20052;-67
2023/12/07 03:38:52;;;;;;;0.10;0.10;;;1.90;99.90;;;;;;5038207;28;20037;-67
2023/12/07 03:41:18;;;;;;;0.20;0.20;;;1.90;99.90;;;;;;5044951;28;20486;-67
2023/12/07 03:43:44;;;;;;;0.10;0.10;;;1.90;99.90;;;;;;5045646;28;20041;-67
2023/12/07 03:46:09;;;;;;;0.10;0.10;;;1.80;99.90;;;;;;5037289;28;20037;-67
2023/12/07 03:48:35;;;;;;;0.10;0.10;;;1.80;99.90;;;;;;5045785;28;20045;-67
2023/12/07 03:51:01;;;;;;;0.10;0.10;;;1.80;99.90;;;;;;5044494;28;20051;-67
2023/12/07 03:53:27;;;;;;;0.10;0.10;;;1.80;99.90;;;;;;5040190;28;20045;-67
2023/12/07 03:55:53;;;;;;;0.10;0.10;;;1.80;99.90;;;;;;5038219;28;20053;-67
2023/12/07 03:58:19;;;;;;;0.43;0.43;;;1.80;99.90;;;;;;5042632;28;20069;-67
2023/12/07 04:00:45;;;;;;;0.10;0.10;;;1.80;99.90;;;;;;5035188;28;20092;-67
2023/12/07 04:03:10;;;;;;;0.20;0.20;;;1.80;99.90;;;;;;5042274;28;20060;-67
2023/12/07 04:05:37;;;;;;;0.10;0.10;;;1.90;99.90;;;;;;5037891;28;20045;-67
2023/12/07 04:08:05;;;;;;;0.40;0.40;;;1.90;99.90;;;;;;5041621;28;20752;-67
2023/12/07 04:10:30;;;;;;;0.10;0.10;;;1.80;99.90;;;;;;5058605;28;20443;-67
2023/12/07 04:12:56;;;;;;;0.10;0.10;;;1.90;99.90;;;;;;5046111;28;20140;-67
2023/12/07 04:15:21;;;;;;;0.43;0.38;;;2.00;99.90;;;;;;5036036;28;20160;-67
2023/12/07 04:17:47;;;;;;;0.10;0.10;;;1.90;99.90;;;;;;5037925;28;20041;-67
2023/12/07 04:20:13;;;;;;;0.20;0.20;;;1.90;99.90;;;;;;5051378;28;20036;-67
2023/12/07 04:22:39;;;;;;;0.10;0.10;;;1.90;99.90;;;;;;5038902;28;21284;-67
2023/12/07 04:25:05;;;;;;;2.15;2.05;;;2.00;99.90;;;;;;5045066;28;20049;-67
2023/12/07 04:27:32;;;;;;;0.43;0.43;;;2.10;99.90;;;;;;5037155;28;20563;-67
2023/12/07 04:29:57;;;;;;;0.20;0.20;;;2.10;99.90;;;;;;5042786;28;20041;-67
2023/12/07 04:32:23;;;;;;;0.10;0.10;;;2.10;99.90;;;;;;5042185;28;20662;-67
2023/12/07 04:34:49;;;;;;;0.10;0.10;;;2.10;99.90;;;;;;5041823;28;20049;-67
2023/12/07 04:37:15;;;;;;;0.82;0.82;;;2.10;99.90;;;;;;5042930;28;20049;-67
2023/12/07 04:39:40;;;;;;;0.10;0.10;;;2.10;99.90;;;;;;5044205;28;20056;-67
2023/12/07 04:42:06;;;;;;;0.43;0.43;;;2.20;99.90;;;;;;5042616;28;20033;-67
2023/12/07 04:44:32;;;;;;;0.20;0.20;;;2.00;99.90;;;;;;5044363;28;20045;-67
2023/12/07 04:46:57;;;;;;;0.10;0.10;;;2.00;99.90;;;;;;5046295;28;20045;-67
2023/12/07 04:49:23;;;;;;;1.45;0.63;;;2.00;99.90;;;;;;5035181;28;20044;-67
2023/12/07 04:51:48;;;;;;;0.10;0.10;;;1.90;99.90;;;;;;5038631;28;20047;-67
2023/12/07 04:54:17;;;;;;;0.10;0.10;;;1.90;99.90;;;;;;5057541;28;20040;-67
2023/12/07 04:56:42;;;;;;;0.43;0.43;;;1.80;99.90;;;;;;5049490;28;20041;-67
2023/12/07 04:59:09;;;;;;;0.30;0.30;;;1.80;99.90;;;;;;5049066;28;20378;-67
2023/12/07 05:01:38;;;;;;;0.15;0.15;;;1.80;99.90;;;;;;5037835;28;20038;-67
2023/12/07 05:04:04;;;;;;;0.45;0.45;;;1.70;99.90;;;;;;5045243;28;20061;-67
2023/12/07 05:06:31;;;;;;;0.10;0.10;;;1.70;99.90;;;;;;5045236;28;20033;-67
2023/12/07 05:08:56;;;;;;;1.20;1.10;;;1.70;99.90;;;;;;5044982;28;20175;-67
2023/12/07 05:11:23;;;;;;;0.40;0.40;;;1.60;99.90;;;;;;5040180;28;20493;-67
2023/12/07 05:13:49;;;;;;;0.10;0.10;;;1.60;99.90;;;;;;5044400;28;20080;-67
2023/12/07 05:16:15;;;;;;;0.10;0.10;;;1.50;99.90;;;;;;5040667;28;20134;-67
2023/12/07 05:18:41;;;;;;;0.10;0.10;;;1.50;99.90;;;;;;5037984;28;20037;-67
2023/12/07 05:21:07;;;;;;;0.10;0.10;;;1.50;99.90;;;;;;5046742;28;20045;-67
2023/12/07 05:23:33;;;;;;;0.10;0.10;;;1.50;99.90;;;;;;5041897;28;20566;-67
2023/12/07 05:25:59;;;;;;;1.33;1.23;;;1.60;99.90;;;;;;5044137;28;20044;-67
2023/12/07 05:28:25;;;;;;;0.28;0.28;;;1.60;99.90;;;;;;5046504;28;20440;-67
2023/12/07 05:30:51;;;;;;;0.10;0.10;;;1.50;99.90;;;;;;5042842;28;20527;-67
2023/12/07 05:33:19;;;;;;;0.10;0.10;;;1.50;99.90;;;;;;5038408;28;20067;-67
2023/12/07 05:35:45;;;;;;;0.10;0.10;;;1.50;99.90;;;;;;5038823;28;20140;-67
2023/12/07 05:38:10;;;;;;;0.50;0.50;;;1.40;99.90;;;;;;5048168;28;20735;-67
2023/12/07 05:40:36;;;;;;;0.57;0.57;;;1.40;99.90;;;;;;5047613;28;20047;-67
2023/12/07 05:43:02;;;;;;;0.73;0.73;;;1.50;99.90;;;;;;5034843;28;20443;-67
2023/12/07 05:45:27;;;;;;;0.10;0.10;;;1.50;99.90;;;;;;5038672;28;20508;-67
2023/12/07 05:47:54;;;;;;;0.55;0.55;;;1.50;99.90;;;;;;5037619;28;20053;-67
2023/12/07 05:50:20;;;;;;;0.10;0.10;;;1.40;99.90;;;;;;5037818;28;20140;-67
2023/12/07 05:52:46;;;;;;;0.15;0.15;;;1.40;99.90;;;;;;5039644;28;20128;-67
2023/12/07 05:55:11;;;;;;;0.10;0.10;;;1.40;99.90;;;;;;5037906;28;20147;-67
2023/12/07 05:57:37;;;;;;;0.20;0.20;;;1.40;99.90;;;;;;5042112;28;20505;-67
2023/12/07 06:00:05;;;;;;;0.10;0.10;;;1.40;99.90;;;;;;5041554;28;20446;-67
2023/12/07 06:02:31;;;;;;;0.10;0.10;;;1.40;99.90;;;;;;5035941;28;20148;-67
2023/12/07 06:04:56;;;;;;;0.10;0.10;;;1.40;99.90;;;;;;5039267;28;20120;-67
2023/12/07 06:07:22;;;;;;;0.10;0.10;;;1.40;99.90;;;;;;5047670;28;20044;-67
2023/12/07 06:09:47;;;;;;;0.10;0.10;;;1.40;99.90;;;;;;5046936;28;20127;-67
2023/12/07 06:12:13;;;;;;;0.13;0.13;;;1.50;99.90;;;;;;5032110;28;20433;-67
2023/12/07 06:14:39;;;;;;;1.27;0.85;;;1.50;99.90;;;;;;5045020;28;20542;-67
2023/12/07 06:17:04;;;;;;;0.20;0.20;;;1.40;99.90;;;;;;5048724;28;20041;-66
2023/12/07 06:19:30;;;;;;;0.10;0.10;;;1.40;99.90;;;;;;5047886;28;20115;-66
2023/12/07 06:21:57;;;;;;;4.10;0.95;;;1.40;99.90;;;;;;5037152;28;20056;-66
2023/12/07 06:24:24;;;;;;;0.17;0.17;;;1.50;99.90;;;;;;5043750;28;20272;-67
2023/12/07 06:26:51;;;;;;;1.15;0.98;;;1.50;99.90;;;;;;5046096;28;20041;-66
2023/12/07 06:29:18;;;;;;;1.23;1.13;;;1.40;99.90;;;;;;5042410;28;20475;-67
2023/12/07 06:31:44;;;;;;;0.10;0.10;;;1.40;99.90;;;;;;5045669;28;20045;-67
2023/12/07 06:34:10;;;;;;;0.10;0.10;;;1.40;99.90;;;;;;5044266;28;20381;-67
2023/12/07 06:36:35;;;;;;;0.10;0.10;;;1.40;99.90;;;;;;5038748;28;20045;-67
2023/12/07 06:39:02;;;;;;;0.30;0.30;;;1.40;99.90;;;;;;5055510;28;20041;-66
2023/12/07 06:41:28;;;;;;;0.35;0.32;;;1.40;99.90;;;;;;5043456;28;20037;-66
2023/12/07 06:43:54;;;;;;;0.10;0.10;;;1.40;99.90;;;;;;5039297;28;20042;-67
2023/12/07 06:46:20;;;;;;;0.20;0.20;;;1.40;99.90;;;;;;5043381;28;20045;-67
2023/12/07 06:48:45;;;;;;;0.10;0.10;;;1.40;99.90;;;;;;5036792;28;20057;-67
2023/12/07 06:51:14;;;;;;;0.10;0.10;;;1.40;99.90;;;;;;5045646;28;20074;-67
2023/12/07 06:53:40;;;;;;;0.20;0.20;;;1.60;99.90;;;;;;5037416;28;20041;-67
2023/12/07 06:56:07;;;;;;;0.50;0.50;;;1.50;99.90;;;;;;5044827;28;20116;-67
2023/12/07 06:58:32;;;;;;;0.10;0.10;;;1.50;99.90;;;;;;5047085;28;20116;-67
2023/12/07 07:00:58;;;;;;;0.10;0.10;;;1.50;99.90;;;;;;5038314;28;20123;-67
2023/12/07 07:03:24;;;;;;;0.20;0.20;;;1.50;99.90;;;;;;5036375;28;20049;-66
2023/12/07 07:05:50;;;;;;;0.20;0.20;;;1.50;99.90;;;;;;5043469;28;20050;-65
2023/12/07 07:08:15;;;;;;;2.00;0.85;;;1.60;99.90;;;;;;5055728;28;20037;-67
2023/12/07 07:10:41;;;;;;;0.13;0.13;;;1.70;99.90;;;;;;5052730;28;20061;-67
2023/12/07 07:13:07;;;;;;;0.52;0.52;;;1.70;99.90;;;;;;5034611;28;20050;-67
2023/12/07 07:15:33;;;;;;;1.40;1.30;;;1.60;99.90;;;;;;5043942;28;20044;-67
2023/12/07 07:17:59;;;;;;;0.40;0.40;;;1.60;99.90;;;;;;5041860;28;20052;-67
2023/12/07 07:20:25;;;;;;;3.65;0.82;;;1.60;99.90;;;;;;5038474;28;20067;-67
2023/12/07 07:22:51;;;;;;;0.25;0.25;;;1.60;99.90;;;;;;5042537;28;20045;-67
2023/12/07 07:25:18;;;;;;;0.95;0.95;;;1.50;99.90;;;;;;5040890;28;20122;-67
2023/12/07 07:27:45;;;;;;;0.30;0.30;;;1.50;99.90;;;;;;5033149;28;20037;-67
2023/12/07 07:30:11;;;;;;;0.45;0.45;;;1.50;99.90;;;;;;5038218;28;20056;-67
2023/12/07 07:32:37;;;;;;;0.10;0.10;;;1.60;99.90;;;;;;5037312;28;20124;-67
2023/12/07 07:35:03;;;;;;;0.10;0.10;;;1.50;99.90;;;;;;5040556;28;20152;-67
2023/12/07 07:37:28;;;;;;;1.27;1.17;;;1.50;99.90;;;;;;5033979;28;20511;-67
2023/12/07 07:39:54;;;;;;;0.10;0.10;;;1.60;99.90;;;;;;5041051;28;20049;-67
2023/12/07 07:42:19;;;;;;;0.10;0.10;;;1.60;99.90;;;;;;5039213;28;20090;-67
2023/12/07 07:44:45;;;;;;;0.55;0.55;;;1.50;99.90;;;;;;5037386;28;20033;-67
2023/12/07 07:47:10;;;;;;;0.30;0.30;;;1.50;99.90;;;;;;5042191;28;20331;-67
2023/12/07 07:49:37;;;;;;;2.83;2.47;;;1.60;99.90;;;;;;5049349;28;20064;-67
2023/12/07 07:52:03;;;;;;;1.05;1.05;;;1.50;99.90;;;;;;5043110;28;20390;-67
2023/12/07 07:54:28;;;;;;;0.20;0.20;;;1.50;99.90;;;;;;5033040;28;20044;-67
2023/12/07 07:56:54;;;;;;;0.13;0.13;;;1.50;99.90;;;;;;5043625;28;20075;-67
2023/12/07 07:59:19;;;;;;;0.20;0.20;;;1.60;99.90;;;;;;5040424;28;20036;-67
2023/12/07 08:01:47;;;;;;;0.10;0.10;;;1.50;99.90;;;;;;5039405;28;20131;-67
2023/12/07 08:04:12;;;;;;;0.15;0.15;;;1.50;99.90;;;;;;5044694;28;20124;-67
2023/12/07 08:06:38;;;;;;;0.10;0.10;;;1.50;99.90;;;;;;5045417;28;20556;-67
2023/12/07 08:09:04;;;;;;;0.10;0.10;;;1.60;99.90;;;;;;5040057;28;20045;-67
2023/12/07 08:11:30;;;;;;;0.10;0.10;;;1.60;99.90;;;;;;5043286;28;20047;-67
2023/12/07 08:13:55;;;;;;;1.42;1.33;;;1.60;99.90;;;;;;5037854;28;20053;-67
2023/12/07 08:16:21;;;;;;;0.55;0.55;;;1.70;99.90;;;;;;5044952;28;20061;-67
2023/12/07 08:18:47;;;;;;;0.10;0.10;;;1.70;99.90;;;;;;5043107;28;20091;-67
2023/12/07 08:21:22;;;;;;;0.10;0.10;;;1.70;99.90;;;;;;5051069;28;20053;-67
2023/12/07 08:23:48;;;;;;;0.70;0.70;;;1.70;99.90;;;;;;5046165;28;20124;-67
2023/12/07 08:26:14;;;;;;;0.32;0.32;;;1.70;99.90;;;;;;5055864;28;20163;-67
2023/12/07 08:28:40;;;;;;;3.28;1.38;;;1.70;99.90;;;;;;5044341;28;20095;-67
2023/12/07 08:31:06;;;;;;;1.33;1.27;;;1.70;99.90;;;;;;5044925;28;20059;-67
2023/12/07 08:33:34;;;;;;;0.38;0.38;;;1.70;99.90;;;;;;5045918;28;20037;-67
2023/12/07 08:36:00;;;;;;;2.53;0.55;;;1.80;99.90;;;;;;5048181;28;20044;-67
2023/12/07 08:38:25;;;;;;;1.15;1.10;;;1.80;99.90;;;;;;5057614;28;20053;-67
2023/12/07 08:40:51;;;;;;;0.20;0.20;;;1.80;99.90;;;;;;5050417;28;20064;-67
2023/12/07 08:43:20;;;;;;;0.20;0.20;;;1.80;99.90;;;;;;5045004;28;20051;-67
2023/12/07 08:45:46;;;;;;;0.22;0.22;;;1.90;99.90;;;;;;5037772;28;20140;-67
2023/12/07 08:48:12;;;;;;;1.30;1.27;;;1.80;99.90;;;;;;5049316;28;20120;-67
2023/12/07 08:50:37;;;;;;;1.10;1.08;;;1.90;99.90;;;;;;5048843;28;20045;-66
2023/12/07 08:53:03;;;;;;;0.30;0.30;;;1.90;99.90;;;;;;5043212;28;20060;-67
2023/12/07 08:55:29;;;;;;;2.05;0.77;;;1.90;99.90;;;;;;5048455;28;20075;-67
2023/12/07 08:57:55;;;;;;;2.67;1.13;;;1.90;99.90;;;;;;5044562;28;20045;-66
2023/12/07 09:00:23;;;;;;;0.20;0.20;;;2.00;99.90;;;;;;5045624;28;20091;-67
2023/12/07 09:02:49;;;;;;;0.40;0.40;;;1.90;99.90;;;;;;5046541;28;20085;-66
2023/12/07 09:05:15;;;;;;;0.10;0.10;;;2.00;99.90;;;;;;5037817;28;20107;-67
2023/12/07 09:07:41;;;;;;;0.63;0.63;;;2.00;99.90;;;;;;5043037;28;20091;-67
2023/12/07 09:10:08;;;;;;;3.33;1.55;;;2.00;99.90;;;;;;5037572;28;20055;-68
2023/12/07 09:12:35;;;;;;;0.80;0.80;;;2.00;99.90;;;;;;5047279;28;20049;-67
2023/12/07 09:15:05;;;;;;;0.52;0.52;;;2.00;99.90;;;;;;5044472;28;20048;-67
2023/12/07 09:17:31;;;;;;;0.10;0.10;;;2.00;99.90;;;;;;5042224;28;20098;-67
2023/12/07 09:19:56;;;;;;;1.00;1.00;;;2.00;99.90;;;;;;5043439;28;20492;-67
2023/12/07 09:22:22;;;;;;;0.45;0.45;;;2.00;99.90;;;;;;5042567;28;20052;-66
2023/12/07 09:24:47;;;;;;;0.65;0.65;;;2.10;99.90;;;;;;5046246;28;20049;-66
2023/12/07 09:27:13;;;;;;;1.85;1.75;;;2.10;99.90;;;;;;5038200;28;20040;-67
2023/12/07 09:29:39;;;;;;;1.23;1.17;;;2.10;99.90;;;;;;5046934;28;20052;-67
2023/12/07 09:32:06;;;;;;;2.85;2.33;;;2.20;99.90;;;;;;5040677;28;20497;-67
2023/12/07 09:34:31;;;;;;;0.20;0.20;;;2.10;99.90;;;;;;5041812;28;20083;-67
2023/12/07 09:37:10;;;;;;;0.40;0.40;;;2.10;99.90;;;;;;5043146;28;20079;-67
2023/12/07 09:39:35;;;;;;;0.80;0.80;;;2.20;99.90;;;;;;5045844;28;20116;-67
2023/12/07 09:42:02;;;;;;;0.10;0.10;;;2.10;99.90;;;;;;5039483;28;20120;-67
2023/12/07 09:44:28;;;;;;;0.10;0.10;;;2.20;99.90;;;;;;5039813;28;20037;-67
2023/12/07 09:46:54;;;;;;;0.20;0.20;;;2.20;99.90;;;;;;5035325;28;20080;-67
2023/12/07 09:49:20;;;;;;;0.90;0.90;;;2.20;99.90;;;;;;5040747;28;20045;-67
2023/12/07 09:51:46;;;;;;;1.65;1.05;;;2.20;99.90;;;;;;5037659;28;20081;-67
2023/12/07 09:54:13;;;;;;;2.78;1.48;;;2.20;99.90;;;;;;5045949;28;20131;-67
2023/12/07 09:56:39;;;;;;;0.20;0.20;;;2.20;99.90;;;;;;5048795;28;20440;-67
2023/12/07 09:59:05;;;;;;;0.10;0.10;;;2.20;99.90;;;;;;5036741;28;20052;-67
2023/12/07 10:01:34;;;;;;;0.35;0.35;;;2.20;99.90;;;;;;5043762;28;20377;-67
2023/12/07 10:04:27;;;;;;;0.30;0.30;;;2.20;99.90;;;;;;5045309;28;20065;-68
2023/12/07 10:06:54;;;;;;;0.20;0.20;;;2.30;99.90;;;;;;5038686;28;20084;-68
2023/12/07 10:09:21;;;;;;;0.90;0.90;;;2.30;99.90;;;;;;5043025;28;20045;-67
2023/12/07 10:11:47;;;;;;;0.98;0.98;;;2.30;99.90;;;;;;5048166;28;20377;-67
2023/12/07 10:14:13;;;;;;;0.15;0.15;;;2.40;99.90;;;;;;5039082;28;20089;-68
2023/12/07 10:16:55;;;;;;;0.40;0.40;;;2.50;99.90;;;;;;5040500;28;20049;-68
2023/12/07 10:19:24;;;;;;;2.42;2.33;;;2.50;99.90;;;;;;5044095;28;20120;-67
2023/12/07 10:21:51;;;;;;;0.17;0.17;;;2.50;99.90;;;;;;5037584;28;20089;-68
2023/12/07 10:24:22;;;;;;;0.25;0.25;;;2.60;99.90;;;;;;5044129;28;20037;-68
2023/12/07 10:26:49;;;;;;;0.25;0.25;;;2.70;99.90;;;;;;5046198;28;20052;-67
2023/12/07 10:29:16;;;;;;;0.32;0.32;;;2.70;99.90;;;;;;5047853;28;20056;-68
2023/12/07 10:31:43;;;;;;;0.93;0.88;;;2.80;99.90;;;;;;5035336;28;20099;-68
2023/12/07 10:34:09;;;;;;;0.30;0.30;;;2.80;99.90;;;;;;5044873;28;20480;-68
2023/12/07 10:36:34;;;;;;;0.57;0.57;;;2.90;99.90;;;;;;5035274;28;20073;-68
2023/12/07 10:39:01;;;;;;;0.20;0.20;;;2.90;99.90;;;;;;5043195;28;20068;-68
2023/12/07 10:41:27;;;;;;;2.72;1.17;;;2.90;99.90;;;;;;5043287;28;20208;-68
2023/12/07 10:43:59;;;;;;;4.68;0.90;;;2.90;99.90;;;;;;5047123;28;20136;-68
2023/12/07 10:46:26;;;;;;;0.20;0.20;;;3.00;99.90;;;;;;5037752;28;20063;-68
2023/12/07 10:49:01;;;;;;;0.55;0.55;;;3.00;99.90;;;;;;5040654;28;20433;-68
2023/12/07 10:51:34;;;;;;;0.95;0.95;;;3.10;99.90;;;;;;5041625;28;20119;-68
2023/12/07 10:54:03;;;;;;;0.70;0.70;;;3.10;99.90;;;;;;5039189;28;20054;-67
2023/12/07 10:56:33;;;;;;;0.77;0.77;;;3.10;99.90;;;;;;5046522;28;20041;-68
2023/12/07 10:59:01;;;;;;;0.20;0.20;;;3.20;99.90;;;;;;5035809;28;20481;-68
2023/12/07 11:01:27;;;;;;;0.45;0.45;;;3.20;99.90;;;;;;5040228;28;20182;-68
2023/12/07 11:03:54;;;;;;;0.30;0.30;;;3.20;99.90;;;;;;5038259;28;20136;-68
2023/12/07 11:06:20;;;;;;;1.58;1.48;;;3.20;99.90;;;;;;5047886;28;20045;-68
2023/12/07 11:08:53;;;;;;;0.20;0.20;;;3.20;99.90;;;;;;5046155;28;20072;-68
2023/12/07 11:11:39;;;;;;;0.88;0.80;;;3.30;99.90;;;;;;5039165;28;20041;-68
2023/12/07 11:14:06;;;;;;;0.60;0.60;;;3.30;99.90;;;;;;5035426;28;20078;-68
2023/12/07 11:16:36;;;;;;;3.10;1.83;;;3.30;99.90;;;;;;5048225;28;20090;-67
2023/12/07 11:19:02;;;;;;;1.23;1.17;;;3.40;99.90;;;;;;5039606;28;20128;-68
2023/12/07 11:21:28;;;;;;;2.03;1.85;;;3.40;99.90;;;;;;5036601;28;20117;-68
2023/12/07 11:23:54;;;;;;;0.80;0.80;;;3.40;99.90;;;;;;5039794;28;20077;-67
2023/12/07 11:26:24;;;;;;;1.50;1.40;;;3.50;99.90;;;;;;5044578;28;20788;-68
2023/12/07 11:28:50;;;;;;;0.35;0.35;;;3.50;99.90;;;;;;5032750;28;20449;-68
2023/12/07 11:31:16;;;;;;;0.57;0.57;;;3.60;99.90;;;;;;5038525;28;20056;-68
2023/12/07 11:33:42;;;;;;;0.52;0.52;;;3.60;99.90;;;;;;5035694;28;20045;-67
2023/12/07 11:36:09;;;;;;;0.50;0.50;;;3.70;99.90;;;;;;5036952;28;20037;-67
2023/12/07 11:38:57;;;;;;;1.20;1.17;;;3.80;99.90;;;;;;5034480;28;20121;-67
2023/12/07 11:41:24;;;;;;;0.45;0.45;;;4.00;99.90;;;;;;5033410;28;20163;-68
2023/12/07 11:43:53;;;;;;;0.75;0.52;;;4.10;99.90;;;;;;5038912;28;20055;-68
2023/12/07 11:46:20;;;;;;;0.15;0.15;;;4.20;99.90;;;;;;5033071;28;20409;-68
2023/12/07 11:48:49;;;;;;;0.70;0.70;;;4.30;99.90;;;;;;5038881;28;20135;-68
2023/12/07 11:51:16;;;;;;;0.30;0.30;;;4.50;99.90;;;;;;5046332;28;20047;-68
2023/12/07 11:53:41;;;;;;;0.82;0.82;;;4.60;99.90;;;;;;5041058;28;20040;-68
2023/12/07 11:56:09;;;;;;;1.55;1.00;;;4.80;99.90;;;;;;5036760;28;20087;-68
2023/12/07 11:58:36;;;;;;;0.40;0.40;;;4.90;99.90;;;;;;5031684;28;20557;-68
2023/12/07 12:01:02;;;;;;;0.43;0.43;;;4.90;99.90;;;;;;5038033;28;20053;-68
2023/12/07 12:03:32;;;;;;;0.52;0.52;;;5.10;99.90;;;;;;5040337;28;20057;-68
2023/12/07 12:05:58;;;;;;;0.35;0.35;;;5.20;99.90;;;;;;5034391;28;20053;-68
2023/12/07 12:08:23;;;;;;;0.38;0.38;;;5.30;99.90;;;;;;5041428;28;20163;-68
2023/12/07 12:10:56;;;;;;;0.35;0.35;;;5.30;99.90;;;;;;5039640;28;20903;-69
2023/12/07 12:13:36;;;;;;;0.85;0.85;;;5.30;99.90;;;;;;5044583;28;20045;-68
2023/12/07 12:16:02;;;;;;;0.98;0.95;;;5.40;99.90;;;;;;5043116;28;20052;-68
2023/12/07 12:18:28;;;;;;;1.20;0.77;;;5.40;99.90;;;;;;5038852;28;20103;-69
2023/12/07 12:20:54;;;;;;;0.30;0.30;;;5.40;99.90;;;;;;5033547;28;20495;-68
2023/12/07 12:23:20;;;;;;;1.75;1.65;;;5.30;99.90;;;;;;5039047;28;20033;-68
2023/12/07 12:25:46;;;;;;;1.73;1.65;;;5.00;99.90;;;;;;5043066;28;20094;-68
2023/12/07 12:28:19;;;;;;;0.77;0.75;;;4.70;99.90;;;;;;5039376;28;20416;-68
2023/12/07 12:30:45;;;;;;;0.17;0.17;;;4.60;99.90;;;;;;5042396;28;20041;-68
2023/12/07 12:33:12;;;;;;;0.10;0.10;;;4.10;99.90;;;;;;5036083;28;20060;-67
2023/12/07 12:35:37;;;;;;;0.20;0.20;;;4.10;99.90;;;;;;5039045;28;20041;-68
2023/12/07 12:38:09;;;;;;;1.85;1.75;;;3.90;99.90;;;;;;5038285;28;20421;-68
2023/12/07 12:40:35;;;;;;;0.20;0.20;;;3.60;99.90;;;;;;5042340;28;20109;-68
2023/12/07 12:43:00;;;;;;;0.75;0.75;;;3.50;99.90;;;;;;5040018;28;20447;-68
2023/12/07 12:45:26;;;;;;;0.77;0.75;;;3.30;99.90;;;;;;5037268;28;20120;-68
2023/12/07 12:47:52;;;;;;;0.10;0.10;;;3.20;99.90;;;;;;5034473;28;20049;-68
2023/12/07 12:50:38;;;;;;;0.60;0.60;;;3.10;99.90;;;;;;5042075;28;20385;-68
2023/12/07 12:53:11;;;;;;;0.75;0.75;;;3.10;99.90;;;;;;5034706;28;20512;-68
2023/12/07 12:55:41;;;;;;;0.53;0.53;;;3.00;99.90;;;;;;5033471;28;20472;-68